Time;durP1;ratioP1;P1;durP2;ratioP2;P2;SDS_P1;SDS_P2;PMS_P1;PMS_P2;Temp;Humidity;BMP_temperature;BMP_pressure;BME280_temperature;BME280_humidity;BME280_pressure;Samples;Min_cycle;Max_cycle;Signal;HPM_P1;HPM_P2
2021/08/09 00:00:05;;;;;;;5.97;5.10;;;;;;;20.83;59.73;99853.72;1707828;82;21070;-76
2021/08/09 00:02:34;;;;;;;5.92;4.58;;;;;;;20.88;59.15;99851.66;1677343;85;21850;-76
2021/08/09 00:05:02;;;;;;;7.67;4.90;;;;;;;20.97;58.91;99850.89;1677691;85;20995;-75
2021/08/09 00:07:28;;;;;;;4.90;4.20;;;;;;;21.01;58.41;99850.50;1701345;82;20931;-76
2021/08/09 00:09:55;;;;;;;3.98;3.30;;;;;;;21.11;58.90;99844.20;1694144;84;21001;-75
2021/08/09 00:12:23;;;;;;;5.17;3.05;;;;;;;21.11;58.90;99844.20;1695801;83;21606;-76
2021/08/09 00:14:50;;;;;;;3.77;2.37;;;;;;;21.29;59.59;99843.17;1688788;84;21044;-73
2021/08/09 00:17:16;;;;;;;3.20;2.60;;;;;;;21.29;59.59;99843.17;1736012;81;21022;-72
2021/08/09 00:19:43;;;;;;;2.17;2.00;;;;;;;21.42;59.59;99839.28;1717377;81;20997;-72
2021/08/09 00:22:10;;;;;;;3.02;1.72;;;;;;;21.52;59.44;99829.41;1704588;83;21505;-73
2021/08/09 00:24:36;;;;;;;2.87;2.67;;;;;;;21.63;58.91;99834.83;1681930;84;21147;-72
2021/08/09 00:27:03;;;;;;;3.17;2.77;;;;;;;21.73;58.86;99835.31;1653504;85;21054;-75
2021/08/09 00:29:30;;;;;;;2.35;2.17;;;;;;;21.81;58.70;99828.81;1734880;82;21489;-75
2021/08/09 00:31:57;;;;;;;3.15;2.85;;;;;;;21.87;58.48;99826.16;1735155;82;21068;-77
2021/08/09 00:34:24;;;;;;;2.45;2.05;;;;;;;21.91;58.30;99832.05;1732668;82;20992;-77
2021/08/09 00:36:51;;;;;;;2.58;2.37;;;;;;;21.98;58.62;99834.31;1744874;81;21011;-81
2021/08/09 00:39:20;;;;;;;4.12;2.55;;;;;;;21.96;57.81;99825.08;1760977;81;20976;-74
2021/08/09 00:41:46;;;;;;;3.45;2.40;;;;;;;21.93;57.82;99824.86;1739487;81;21476;-77
2021/08/09 00:44:15;;;;;;;2.80;2.50;;;;;;;21.95;57.68;99824.83;1761025;81;21010;-76
2021/08/09 00:46:43;;;;;;;6.55;3.12;;;;;;;21.93;58.31;99817.48;1758446;81;20936;-75
2021/08/09 00:49:10;;;;;;;2.60;2.40;;;;;;;21.91;58.42;99822.46;1734968;82;21017;-74
2021/08/09 00:51:37;;;;;;;3.08;2.77;;;;;;;21.90;58.44;99818.10;1705972;83;21986;-75
2021/08/09 00:54:05;;;;;;;4.45;2.08;;;;;;;21.92;57.85;99821.31;1705899;82;21558;-74
2021/08/09 00:56:32;;;;;;;2.20;2.05;;;;;;;21.94;57.76;99818.29;1677879;84;21020;-74
2021/08/09 00:58:59;;;;;;;4.17;2.15;;;;;;;21.97;57.56;99817.07;1723592;82;21020;-74
2021/08/09 01:01:26;;;;;;;2.50;2.12;;;;;;;22.00;57.40;99817.81;1731593;81;20992;-74
2021/08/09 01:03:53;;;;;;;2.92;2.72;;;;;;;22.05;57.22;99805.33;1722580;82;21103;-74
2021/08/09 01:06:21;;;;;;;3.45;2.80;;;;;;;21.99;56.24;99815.39;1730232;82;20963;-73
2021/08/09 01:09:19;;;;;;;2.27;2.15;;;;;;;21.71;56.58;99812.94;1721079;82;21533;-72
2021/08/09 01:12:22;;;;;;;6.20;3.60;;;;;;;21.57;57.45;99812.27;1720983;83;20934;-75
2021/08/09 01:15:19;;;;;;;5.43;4.37;;;;;;;20.87;60.81;99810.95;1702415;83;20977;-74
2021/08/09 01:17:47;;;;;;;4.20;2.98;;;;;;;20.74;61.33;99810.50;1721181;82;21173;-80
2021/08/09 01:20:51;;;;;;;2.83;2.42;;;;;;;20.67;61.68;99811.52;1720983;83;21563;-74
2021/08/09 01:23:37;;;;;;;3.58;3.10;;;;;;;20.61;62.04;99814.14;1693074;83;21037;-78
2021/08/09 01:26:12;;;;;;;7.60;2.52;;;;;;;20.56;60.74;99810.97;1687972;83;21014;-79
2021/08/09 01:28:39;;;;;;;2.95;2.65;;;;;;;20.63;60.15;99814.61;1676867;83;21050;-79
2021/08/09 01:31:06;;;;;;;4.65;2.72;;;;;;;20.66;60.12;99812.08;1678726;83;21013;-81
2021/08/09 01:33:36;;;;;;;5.58;3.00;;;;;;;20.75;59.73;99810.75;1702350;83;20962;-79
2021/08/09 01:36:03;;;;;;;2.72;2.17;;;;;;;20.84;59.72;99807.50;1705382;82;21037;-75
2021/08/09 01:38:30;;;;;;;2.35;2.12;;;;;;;20.92;59.88;99805.91;1715501;83;20974;-82
2021/08/09 01:40:58;;;;;;;5.50;2.40;;;;;;;21.04;57.09;99804.21;1719940;83;21022;-79
2021/08/09 01:43:27;;;;;;;5.70;2.33;;;;;;;21.20;56.07;99802.67;1702096;83;21139;-81
2021/08/09 01:45:56;;;;;;;4.53;2.42;;;;;;;21.32;55.42;99802.07;1726293;83;20961;-82
2021/08/09 01:48:23;;;;;;;2.52;2.27;;;;;;;21.40;54.77;99801.27;1679678;83;21506;-83
2021/08/09 01:50:51;;;;;;;4.55;2.33;;;;;;;21.47;54.16;99809.03;1721282;82;21002;-83
2021/08/09 01:53:17;;;;;;;3.62;3.00;;;;;;;21.49;54.36;99809.50;1721286;83;21495;-81
2021/08/09 01:55:45;;;;;;;4.15;2.83;;;;;;;21.47;54.22;99811.77;1726547;82;21141;-83
2021/08/09 01:58:15;;;;;;;3.80;2.72;;;;;;;21.42;55.17;99811.35;1727129;82;20933;-83
2021/08/09 02:00:44;;;;;;;2.52;2.08;;;;;;;21.30;55.21;99809.22;1726995;82;21008;-83
2021/08/09 02:03:11;;;;;;;3.30;2.58;;;;;;;21.30;54.78;99809.78;1705774;83;21036;-81
2021/08/09 02:05:38;;;;;;;3.10;2.85;;;;;;;21.28;55.16;99814.78;1702398;82;21068;-83
2021/08/09 02:08:13;;;;;;;2.50;2.30;;;;;;;21.25;55.58;99815.39;1743450;81;22654;-83
2021/08/09 02:10:40;;;;;;;3.42;3.12;;;;;;;21.22;56.09;99812.75;1688958;83;20941;-82
2021/08/09 02:13:19;;;;;;;4.10;2.75;;;;;;;21.22;56.09;99812.75;1739214;81;21083;-84
2021/08/09 02:16:10;;;;;;;2.87;2.08;;;;;;;21.24;56.01;99815.98;1761051;81;21556;-84
2021/08/09 02:19:00;;;;;;;3.12;2.83;;;;;;;21.26;55.82;99818.37;1733181;82;21513;-81
2021/08/09 02:21:40;;;;;;;18.87;15.48;;;;;;;21.15;55.20;99820.59;1735122;82;21804;-78
2021/08/09 02:24:11;;;;;;;6.17;5.58;;;;;;;20.14;63.93;99816.93;1711746;82;20956;-82
2021/08/09 02:26:52;;;;;;;4.83;4.42;;;;;;;20.14;63.93;99816.93;1734970;82;20894;-83
2021/08/09 02:29:26;;;;;;;11.70;4.42;;;;;;;19.42;66.78;99819.06;1755931;81;21555;-79
2021/08/09 02:31:53;;;;;;;5.22;4.03;;;;;;;18.94;68.34;99821.95;1760876;81;21015;-79
2021/08/09 02:34:21;;;;;;;4.28;3.45;;;;;;;18.88;68.24;99815.78;1724681;81;21507;-81
2021/08/09 02:36:50;;;;;;;11.73;4.25;;;;;;;18.91;67.64;99823.34;1735228;81;21513;-80
2021/08/09 02:39:16;;;;;;;4.90;3.90;;;;;;;18.98;67.79;99832.50;1761830;81;20918;-82
2021/08/09 02:41:43;;;;;;;4.15;3.85;;;;;;;18.96;67.99;99830.06;1735101;82;20922;-78
2021/08/09 02:44:09;;;;;;;7.42;4.42;;;;;;;18.91;68.10;99836.97;1735368;81;21026;-80
2021/08/09 02:46:40;;;;;;;4.12;3.60;;;;;;;18.89;68.28;99834.30;1688193;82;21108;-80
2021/08/09 02:49:09;;;;;;;4.70;4.17;;;;;;;18.83;68.46;99845.84;1735022;81;20902;-82
2021/08/09 02:51:37;;;;;;;11.08;4.65;;;;;;;18.71;68.80;99849.59;1748283;81;21506;-82
2021/08/09 02:54:04;;;;;;;10.78;4.53;;;;;;;18.66;69.29;99851.05;1735193;81;20945;-82
2021/08/09 02:56:32;;;;;;;7.30;6.33;;;;;;;18.62;69.70;99850.03;1762013;81;21005;-81
2021/08/09 02:59:01;;;;;;;9.08;5.05;;;;;;;18.61;69.94;99847.04;1735185;81;21118;-81
2021/08/09 03:01:28;;;;;;;13.53;5.72;;;;;;;18.68;70.15;99844.75;1727838;81;21024;-80
2021/08/09 03:03:58;;;;;;;14.75;5.42;;;;;;;18.73;69.93;99846.03;1692658;82;20988;-81
2021/08/09 03:06:26;;;;;;;15.35;6.50;;;;;;;18.79;69.94;99837.21;1711788;82;21029;-80
2021/08/09 03:08:53;;;;;;;10.15;5.60;;;;;;;18.80;70.17;99845.65;1735497;82;21031;-81
2021/08/09 03:11:21;;;;;;;12.30;7.17;;;;;;;18.86;70.21;99843.06;1701624;81;21074;-85
2021/08/09 03:13:49;;;;;;;6.05;5.45;;;;;;;18.78;69.73;99843.22;1738497;81;21096;-79
2021/08/09 03:16:15;;;;;;;10.68;5.78;;;;;;;18.68;70.21;99845.56;1735318;82;21585;-81
2021/08/09 03:18:42;;;;;;;9.43;6.20;;;;;;;18.62;70.52;99847.30;1700780;82;20973;-78
2021/08/09 03:21:09;;;;;;;7.25;5.50;;;;;;;18.59;70.61;99848.73;1712219;82;21033;-78
2021/08/09 03:23:35;;;;;;;6.62;5.87;;;;;;;18.57;70.65;99850.11;1707452;82;21060;-78
2021/08/09 03:26:03;;;;;;;4.80;4.33;;;;;;;18.59;70.52;99856.09;1692558;82;21532;-78
2021/08/09 03:28:31;;;;;;;10.25;4.90;;;;;;;18.68;70.30;99865.19;1701571;82;20969;-79
2021/08/09 03:30:59;;;;;;;5.47;4.65;;;;;;;18.81;70.14;99861.68;1763744;81;21056;-80
2021/08/09 03:33:26;;;;;;;9.60;5.75;;;;;;;18.91;69.72;99851.95;1760841;81;21519;-78
2021/08/09 03:35:52;;;;;;;9.83;5.55;;;;;;;19.00;69.38;99857.52;1739290;81;21052;-78
2021/08/09 03:38:19;;;;;;;5.58;5.08;;;;;;;19.04;69.25;99855.83;1738485;81;20922;-79
2021/08/09 03:40:47;;;;;;;5.92;4.72;;;;;;;19.07;69.15;99848.40;1735415;82;20941;-79
2021/08/09 03:43:14;;;;;;;5.53;4.90;;;;;;;19.06;69.23;99848.95;1718844;82;20937;-78
2021/08/09 03:45:40;;;;;;;12.50;5.37;;;;;;;19.03;69.32;99852.30;1698836;83;20997;-78
2021/08/09 03:48:10;;;;;;;8.73;5.80;;;;;;;19.01;69.55;99855.05;1738835;81;21137;-78
2021/08/09 03:50:37;;;;;;;5.97;4.37;;;;;;;18.95;69.70;99850.80;1738372;81;20962;-79
2021/08/09 03:53:06;;;;;;;6.22;5.25;;;;;;;18.93;70.01;99852.48;1688068;82;20949;-78
2021/08/09 03:55:33;;;;;;;5.87;4.30;;;;;;;18.92;70.56;99853.58;1710660;82;21132;-82
2021/08/09 03:58:00;;;;;;;6.62;4.12;;;;;;;18.96;70.52;99851.05;1691171;82;21028;-76
2021/08/09 04:00:27;;;;;;;12.47;5.97;;;;;;;19.01;70.44;99851.77;1733585;81;21943;-75
2021/08/09 04:02:54;;;;;;;9.18;5.87;;;;;;;18.99;71.17;99846.38;1758504;81;20979;-74
2021/08/09 04:05:22;;;;;;;13.72;8.63;;;;;;;18.87;71.67;99844.13;1735447;81;20973;-74
2021/08/09 04:07:50;;;;;;;8.50;5.90;;;;;;;18.86;72.37;99844.42;1736331;81;20982;-77
2021/08/09 04:10:18;;;;;;;14.53;9.90;;;;;;;18.84;72.25;99845.30;1746604;82;21189;-77
2021/08/09 04:12:44;;;;;;;8.53;5.47;;;;;;;18.94;72.38;99836.94;1724322;83;21031;-76
2021/08/09 04:15:12;;;;;;;7.97;4.20;;;;;;;19.05;71.52;99845.97;1698957;84;21504;-82
2021/08/09 04:17:38;;;;;;;8.35;3.55;;;;;;;19.16;71.25;99845.22;1666772;85;21043;-80
2021/08/09 04:20:07;;;;;;;6.37;4.05;;;;;;;19.28;70.63;99851.55;1708810;82;21061;-80
2021/08/09 04:22:33;;;;;;;7.03;4.28;;;;;;;19.36;70.79;99859.83;1711844;82;21530;-80
2021/08/09 04:25:01;;;;;;;5.95;4.78;;;;;;;19.43;70.67;99861.58;1735250;81;21714;-79
2021/08/09 04:27:29;;;;;;;12.15;5.22;;;;;;;19.52;70.81;99858.97;1735113;81;20953;-82
2021/08/09 04:29:57;;;;;;;5.37;3.25;;;;;;;19.55;70.98;99855.09;1735011;81;21537;-81
2021/08/09 04:32:23;;;;;;;5.65;3.40;;;;;;;19.63;70.56;99852.19;1735462;82;21013;-80
2021/08/09 04:34:49;;;;;;;5.08;4.47;;;;;;;19.76;69.53;99854.08;1735255;82;20926;-80
2021/08/09 04:37:16;;;;;;;4.70;4.20;;;;;;;19.85;69.74;99855.00;1735577;82;21520;-80
2021/08/09 04:39:44;;;;;;;11.25;5.35;;;;;;;19.87;70.13;99859.58;1735087;82;20992;-80
2021/08/09 04:42:10;;;;;;;5.95;3.67;;;;;;;19.93;69.67;99857.55;1712343;82;21548;-79
2021/08/09 04:44:39;;;;;;;8.60;4.30;;;;;;;20.04;69.48;99856.20;1706883;82;20993;-79
2021/08/09 04:47:09;;;;;;;29.12;25.17;;;;;;;20.17;68.58;99855.34;1712241;82;20933;-80
2021/08/09 04:49:36;;;;;;;17.35;8.33;;;;;;;20.33;68.21;99859.93;1711975;82;20985;-82
2021/08/09 04:52:03;;;;;;;10.50;5.00;;;;;;;20.42;67.57;99863.52;1761985;81;20953;-81
2021/08/09 04:54:30;;;;;;;8.55;4.85;;;;;;;20.49;67.58;99860.34;1735305;81;20966;-81
2021/08/09 04:56:57;;;;;;;5.35;4.35;;;;;;;20.53;67.43;99865.45;1699148;83;21028;-81
2021/08/09 04:59:24;;;;;;;10.03;4.10;;;;;;;20.61;67.10;99872.34;1676421;85;21615;-81
2021/08/09 05:01:51;;;;;;;7.53;3.65;;;;;;;20.69;67.02;99868.84;1726656;82;21399;-81
2021/08/09 05:04:18;;;;;;;8.28;3.80;;;;;;;20.79;66.67;99873.25;1709966;82;21573;-81
2021/08/09 05:06:48;;;;;;;12.18;3.87;;;;;;;20.89;66.32;99877.90;1709213;82;20925;-80
2021/08/09 05:09:14;;;;;;;7.40;3.47;;;;;;;21.04;65.89;99882.72;1680080;84;20968;-80
2021/08/09 05:11:41;;;;;;;6.85;3.65;;;;;;;21.22;64.73;99888.53;1679728;84;21049;-81
2021/08/09 05:14:09;;;;;;;14.03;4.17;;;;;;;21.41;63.86;99891.83;1700338;84;21122;-80
2021/08/09 05:16:38;;;;;;;14.45;4.95;;;;;;;21.56;63.36;99890.59;1663385;84;21055;-79
2021/08/09 05:19:08;;;;;;;10.63;3.40;;;;;;;21.69;63.01;99892.39;1665402;84;21020;-81
2021/08/09 05:21:35;;;;;;;7.05;3.40;;;;;;;21.74;62.84;99878.00;1649990;86;20966;-82
2021/08/09 05:24:02;;;;;;;10.53;3.80;;;;;;;21.83;62.75;99879.94;1656264;84;21011;-82
2021/08/09 05:26:28;;;;;;;7.58;3.35;;;;;;;21.93;62.70;99880.47;1654330;85;21614;-79
2021/08/09 05:28:55;;;;;;;5.75;2.55;;;;;;;21.96;62.96;99884.52;1654498;85;21019;-79
2021/08/09 05:31:23;;;;;;;5.17;2.55;;;;;;;22.00;63.23;99890.41;1654141;85;21023;-78
2021/08/09 05:33:51;;;;;;;3.22;2.58;;;;;;;22.05;63.53;99885.33;1676268;84;21038;-78
2021/08/09 05:36:18;;;;;;;6.72;3.47;;;;;;;22.12;63.69;99880.16;1676337;85;21103;-78
2021/08/09 05:38:46;;;;;;;3.65;3.17;;;;;;;22.22;63.79;99886.70;1681707;84;20934;-80
2021/08/09 05:41:13;;;;;;;6.22;3.60;;;;;;;22.32;63.84;99886.94;1673351;85;20923;-79
2021/08/09 05:43:39;;;;;;;10.10;4.22;;;;;;;22.40;63.78;99888.86;1655434;85;21099;-79
2021/08/09 05:46:06;;;;;;;8.65;3.05;;;;;;;22.49;62.99;99889.69;1677253;85;21052;-81
2021/08/09 05:48:34;;;;;;;2.67;2.45;;;;;;;22.60;62.23;99886.27;1678031;85;21016;-80
2021/08/09 05:51:05;;;;;;;2.67;2.25;;;;;;;22.66;62.08;99880.06;1678094;85;21044;-80
2021/08/09 05:53:32;;;;;;;3.30;2.25;;;;;;;22.69;62.26;99880.77;1676927;85;20967;-80
2021/08/09 05:55:59;;;;;;;6.08;3.17;;;;;;;22.72;62.40;99876.62;1656403;85;21543;-83
2021/08/09 05:58:27;;;;;;;4.83;2.35;;;;;;;22.80;62.42;99885.38;1667003;84;21054;-81
2021/08/09 06:00:54;;;;;;;9.78;3.62;;;;;;;22.84;62.36;99886.34;1672535;84;21105;-83
2021/08/09 06:03:23;;;;;;;22.17;3.80;;;;;;;22.86;62.51;99881.34;1656897;85;21008;-82
2021/08/09 06:05:54;;;;;;;4.00;2.80;;;;;;;22.90;62.23;99887.22;1666992;85;20931;-82
2021/08/09 06:08:23;;;;;;;7.53;2.83;;;;;;;22.97;61.53;99887.51;1662970;84;21069;-81
2021/08/09 06:10:49;;;;;;;2.85;2.52;;;;;;;23.07;61.37;99887.72;1674896;84;21069;-83
2021/08/09 06:13:16;;;;;;;3.90;2.40;;;;;;;23.18;61.38;99890.36;1691811;83;21498;-81
2021/08/09 06:15:44;;;;;;;10.10;3.45;;;;;;;23.30;60.93;99900.09;1691824;84;21070;-81
2021/08/09 06:18:12;;;;;;;12.88;2.50;;;;;;;23.37;59.99;99890.77;1671513;84;21075;-81
2021/08/09 06:20:38;;;;;;;5.67;2.50;;;;;;;23.44;59.60;99893.84;1671628;84;21005;-81
2021/08/09 06:23:06;;;;;;;7.00;3.25;;;;;;;23.51;59.85;99897.98;1676985;84;21572;-81
2021/08/09 06:25:32;;;;;;;5.12;2.50;;;;;;;23.59;59.89;99898.53;1725357;82;21021;-82
2021/08/09 06:27:59;;;;;;;6.62;3.75;;;;;;;23.64;58.99;99902.47;1730494;81;21884;-81
2021/08/09 06:30:26;;;;;;;4.85;3.85;;;;;;;23.66;58.90;99896.06;1694540;82;21570;-81
2021/08/09 06:32:53;;;;;;;12.10;3.02;;;;;;;23.70;58.81;99897.00;1679593;84;21687;-81
2021/08/09 06:35:21;;;;;;;15.83;3.50;;;;;;;23.70;58.81;99902.49;1700208;84;21024;-81
2021/08/09 06:37:47;;;;;;;11.63;2.95;;;;;;;23.72;58.80;99903.78;1699937;84;21258;-81
2021/08/09 06:40:15;;;;;;;12.98;2.75;;;;;;;23.80;58.79;99908.98;1699959;84;21001;-80
2021/08/09 06:42:44;;;;;;;10.58;4.42;;;;;;;23.87;58.41;99906.53;1699969;84;20933;-82
2021/08/09 06:45:18;;;;;;;5.05;2.85;;;;;;;23.97;58.12;99908.89;1700481;82;21072;-81
2021/08/09 06:47:44;;;;;;;7.50;3.02;;;;;;;24.02;57.31;99910.07;1676988;84;21562;-81
2021/08/09 06:50:11;;;;;;;22.77;3.62;;;;;;;24.13;56.63;99901.64;1655157;85;21040;-81
2021/08/09 06:52:37;;;;;;;12.53;5.37;;;;;;;24.24;56.47;99897.97;1709793;82;21085;-80
2021/08/09 06:55:07;;;;;;;8.68;4.62;;;;;;;24.31;56.44;99898.24;1710000;82;20973;-83
2021/08/09 06:57:35;;;;;;;10.15;3.77;;;;;;;24.38;56.51;99903.99;1719707;82;20982;-80
2021/08/09 07:00:12;;;;;;;6.17;3.37;;;;;;;24.43;56.56;99910.66;1712795;83;21475;-80
2021/08/09 07:02:45;;;;;;;11.30;3.80;;;;;;;24.42;56.70;99909.62;1710495;82;21527;-80
2021/08/09 07:05:12;;;;;;;4.37;3.90;;;;;;;24.42;56.78;99907.67;1712455;83;21137;-81
2021/08/09 07:07:44;;;;;;;8.20;4.47;;;;;;;24.47;55.64;99897.04;1693843;83;21491;-81
2021/08/09 07:10:11;;;;;;;7.67;3.30;;;;;;;24.58;54.41;99905.12;1712790;83;20903;-81
2021/08/09 07:12:39;;;;;;;3.70;3.15;;;;;;;24.70;54.15;99907.33;1712795;83;21005;-81
2021/08/09 07:15:06;;;;;;;3.00;2.70;;;;;;;24.82;53.69;99899.70;1712535;83;21018;-80
2021/08/09 07:17:41;;;;;;;8.90;2.75;;;;;;;24.92;52.58;99897.93;1674922;84;21585;-80
2021/08/09 07:20:10;;;;;;;9.55;3.12;;;;;;;24.99;51.89;99899.54;1661107;84;21093;-81
2021/08/09 07:22:43;;;;;;;5.37;4.03;;;;;;;24.99;52.12;99904.23;1652682;84;21008;-81
2021/08/09 07:25:11;;;;;;;8.27;3.97;;;;;;;25.01;52.49;99903.34;1712980;83;21503;-82
2021/08/09 07:27:38;;;;;;;5.30;3.10;;;;;;;25.06;52.23;99902.55;1712340;83;20974;-82
2021/08/09 07:30:06;;;;;;;7.10;2.77;;;;;;;25.18;50.39;99903.13;1693781;83;21795;-80
2021/08/09 07:32:33;;;;;;;14.63;3.27;;;;;;;25.25;51.02;99905.33;1694035;83;21014;-80
2021/08/09 07:35:00;;;;;;;5.75;2.83;;;;;;;25.33;50.74;99901.09;1683979;84;21621;-80
2021/08/09 07:37:27;;;;;;;2.65;2.45;;;;;;;25.41;49.71;99900.77;1664662;85;21064;-81
2021/08/09 07:39:53;;;;;;;3.30;2.00;;;;;;;25.47;49.21;99908.44;1683072;83;21013;-80
2021/08/09 07:42:20;;;;;;;3.00;2.30;;;;;;;25.48;48.29;99903.73;1712988;83;20983;-80
2021/08/09 07:44:46;;;;;;;2.98;2.52;;;;;;;25.46;48.07;99905.48;1742344;82;20923;-80
2021/08/09 07:47:15;;;;;;;4.33;2.40;;;;;;;25.50;48.58;99894.56;1738818;82;20903;-80
2021/08/09 07:49:43;;;;;;;6.28;4.20;;;;;;;25.47;48.29;99898.80;1712590;83;21062;-79
2021/08/09 07:52:09;;;;;;;4.22;2.90;;;;;;;25.50;47.84;99901.45;1712681;83;21029;-80
2021/08/09 07:54:37;;;;;;;3.55;2.65;;;;;;;25.59;48.11;99908.48;1712449;83;21103;-79
2021/08/09 07:57:06;;;;;;;2.98;2.60;;;;;;;25.62;48.28;99895.95;1712150;82;21018;-79
2021/08/09 07:59:33;;;;;;;5.42;2.45;;;;;;;25.68;48.11;99893.20;1710952;83;21487;-80
2021/08/09 08:02:02;;;;;;;8.50;2.30;;;;;;;25.73;47.98;99891.59;1711205;83;20927;-79
2021/08/09 08:04:30;;;;;;;2.77;2.22;;;;;;;25.79;47.80;99893.55;1693104;83;21018;-80
2021/08/09 08:06:57;;;;;;;3.75;2.30;;;;;;;25.88;47.46;99888.72;1712521;83;21160;-80
2021/08/09 08:09:23;;;;;;;4.67;3.02;;;;;;;25.90;47.70;99880.31;1712462;83;20911;-81
2021/08/09 08:11:50;;;;;;;9.70;3.75;;;;;;;26.00;46.56;99881.22;1712613;83;21506;-81
2021/08/09 08:14:18;;;;;;;9.35;2.87;;;;;;;26.17;46.64;99885.67;1712587;82;21115;-77
2021/08/09 08:16:46;;;;;;;3.75;2.72;;;;;;;26.25;46.26;99878.42;1695206;83;20935;-79
2021/08/09 08:19:14;;;;;;;4.67;2.87;;;;;;;26.26;46.63;99867.05;1682429;85;20960;-80
2021/08/09 08:21:41;;;;;;;9.33;2.80;;;;;;;26.24;46.57;99866.59;1682399;85;21107;-80
2021/08/09 08:24:07;;;;;;;7.20;2.87;;;;;;;26.27;46.43;99865.10;1700288;83;21019;-80
2021/08/09 08:26:35;;;;;;;5.15;2.80;;;;;;;26.36;45.60;99867.94;1712414;83;21499;-80
2021/08/09 08:29:02;;;;;;;5.53;2.65;;;;;;;26.46;45.88;99882.61;1702264;83;21042;-79
2021/08/09 08:31:29;;;;;;;4.22;3.20;;;;;;;26.55;45.79;99880.27;1682460;85;21148;-79
2021/08/09 08:33:56;;;;;;;3.92;3.62;;;;;;;26.56;44.20;99870.84;1702126;83;20828;-79
2021/08/09 08:36:23;;;;;;;5.10;3.05;;;;;;;26.59;44.33;99878.41;1712320;83;20967;-80
2021/08/09 08:38:49;;;;;;;8.08;3.00;;;;;;;26.58;44.21;99884.50;1712912;82;21010;-79
2021/08/09 08:41:18;;;;;;;7.80;2.70;;;;;;;26.62;43.99;99889.53;1712758;83;21009;-79
2021/08/09 08:43:45;;;;;;;4.65;3.35;;;;;;;26.63;43.60;99887.01;1742857;82;21042;-80
2021/08/09 08:46:12;;;;;;;3.22;2.47;;;;;;;26.68;43.74;99890.89;1716175;82;21024;-79
2021/08/09 08:48:41;;;;;;;7.10;3.02;;;;;;;26.71;44.27;99893.55;1693688;83;21129;-79
2021/08/09 08:51:08;;;;;;;3.02;2.72;;;;;;;26.79;44.09;99893.95;1741570;82;21582;-80
2021/08/09 08:53:36;;;;;;;11.45;3.95;;;;;;;26.89;42.73;99898.42;1661034;85;21028;-80
2021/08/09 08:56:07;;;;;;;4.22;3.35;;;;;;;27.01;42.71;99898.91;1661276;86;22334;-78
2021/08/09 08:58:35;;;;;;;3.27;2.72;;;;;;;27.13;42.03;99882.86;1651017;86;21598;-79
2021/08/09 09:01:02;;;;;;;5.87;3.33;;;;;;;27.16;42.26;99884.89;1686057;83;20982;-79
2021/08/09 09:03:28;;;;;;;5.70;4.45;;;;;;;27.16;42.88;99889.84;1690536;83;21006;-79
2021/08/09 09:06:07;;;;;;;12.47;6.53;;;;;;;27.17;42.89;99880.41;1712466;83;21038;-79
2021/08/09 09:08:44;;;;;;;5.83;3.52;;;;;;;27.22;42.97;99880.72;1742687;82;21789;-79
2021/08/09 09:11:22;;;;;;;3.62;2.52;;;;;;;27.26;42.70;99877.45;1712463;83;21002;-81
2021/08/09 09:14:02;;;;;;;5.12;2.80;;;;;;;27.32;42.96;99891.23;1704244;83;20997;-81
2021/08/09 09:16:48;;;;;;;5.53;3.30;;;;;;;27.35;42.75;99886.37;1712781;83;21085;-80
2021/08/09 09:19:41;;;;;;;6.60;2.92;;;;;;;27.41;42.56;99886.91;1712249;83;20963;-79
2021/08/09 09:22:18;;;;;;;5.37;3.02;;;;;;;27.53;41.97;99883.48;1712290;82;20985;-77
2021/08/09 09:24:54;;;;;;;3.25;2.67;;;;;;;27.70;41.45;99891.98;1712404;82;21538;-77
2021/08/09 09:27:33;;;;;;;3.20;2.90;;;;;;;27.85;41.45;99887.59;1701283;83;20973;-77
2021/08/09 09:30:00;;;;;;;3.83;3.00;;;;;;;28.01;40.84;99889.74;1660781;86;21078;-77
2021/08/09 09:32:27;;;;;;;4.17;2.30;;;;;;;28.13;40.26;99889.05;1641577;86;21071;-78
2021/08/09 09:34:58;;;;;;;11.55;3.10;;;;;;;28.24;40.26;99894.81;1661233;86;21513;-81
2021/08/09 09:37:38;;;;;;;7.60;2.67;;;;;;;28.30;40.37;99893.34;1661012;86;21036;-78
2021/08/09 09:40:08;;;;;;;2.60;2.35;;;;;;;28.36;40.65;99896.63;1659742;86;20970;-78
2021/08/09 09:42:37;;;;;;;4.67;3.17;;;;;;;28.39;40.73;99895.34;1644732;87;21173;-77
2021/08/09 09:45:23;;;;;;;2.50;2.08;;;;;;;28.39;40.91;99889.80;1658327;86;21111;-80
2021/08/09 09:48:07;;;;;;;4.30;3.25;;;;;;;28.45;41.15;99899.39;1661715;84;22127;-83
2021/08/09 09:50:36;;;;;;;3.40;2.35;;;;;;;28.48;40.89;99897.30;1691234;83;21001;-80
2021/08/09 09:53:22;;;;;;;3.92;2.37;;;;;;;28.52;40.76;99903.70;1710911;83;21587;-82
2021/08/09 09:55:52;;;;;;;4.15;2.55;;;;;;;28.57;41.01;99906.77;1692139;83;21003;-83
2021/08/09 09:58:20;;;;;;;11.20;3.85;;;;;;;28.63;41.01;99890.86;1714800;83;21030;-81
2021/08/09 10:00:46;;;;;;;9.60;4.47;;;;;;;28.63;40.49;99890.86;1706193;83;21503;-82
2021/08/09 10:03:16;;;;;;;3.65;3.05;;;;;;;28.60;40.22;99887.45;1690769;84;21031;-82
2021/08/09 10:05:43;;;;;;;3.47;2.47;;;;;;;28.60;40.04;99898.52;1672794;84;21501;-80
2021/08/09 10:08:18;;;;;;;3.05;2.55;;;;;;;28.65;39.41;99891.89;1711254;83;20930;-81
2021/08/09 10:10:51;;;;;;;2.20;2.10;;;;;;;28.71;38.94;99882.16;1721125;83;21069;-77
2021/08/09 10:13:22;;;;;;;2.00;1.90;;;;;;;28.75;37.80;99877.48;1721117;83;21529;-76
2021/08/09 10:15:53;;;;;;;2.42;2.05;;;;;;;28.82;36.95;99876.24;1721355;83;20961;-79
2021/08/09 10:18:24;;;;;;;2.52;2.33;;;;;;;28.88;36.48;99861.48;1721125;83;21130;-80
2021/08/09 10:20:53;;;;;;;3.02;2.35;;;;;;;28.88;37.17;99864.25;1690843;83;21068;-72
2021/08/09 10:23:48;;;;;;;2.25;2.05;;;;;;;28.93;37.28;99876.41;1721428;83;21017;-72
2021/08/09 10:26:46;;;;;;;3.17;2.70;;;;;;;29.03;37.65;99884.12;1687573;84;21749;-70
2021/08/09 10:29:12;;;;;;;2.67;2.37;;;;;;;29.17;37.62;99886.34;1716168;83;20883;-70
2021/08/09 10:31:48;;;;;;;6.03;2.65;;;;;;;29.26;36.78;99882.14;1722038;83;20938;-72
2021/08/09 10:34:39;;;;;;;2.45;2.25;;;;;;;29.30;36.57;99873.36;1712549;83;20890;-71
2021/08/09 10:37:14;;;;;;;1.80;1.70;;;;;;;29.37;35.88;99879.59;1721958;83;20981;-71
2021/08/09 10:40:04;;;;;;;3.22;2.30;;;;;;;29.42;35.33;99881.47;1704191;83;20958;-71
2021/08/09 10:42:40;;;;;;;2.60;2.20;;;;;;;29.48;34.63;99886.69;1722111;83;21454;-72
2021/08/09 10:45:13;;;;;;;3.45;2.33;;;;;;;29.50;34.25;99887.91;1702648;83;20922;-71
2021/08/09 10:47:52;;;;;;;2.95;2.75;;;;;;;29.50;34.28;99886.52;1721942;83;20950;-71
2021/08/09 10:50:40;;;;;;;2.35;2.15;;;;;;;29.52;33.77;99878.65;1721661;83;21109;-75
2021/08/09 10:53:31;;;;;;;2.10;1.95;;;;;;;29.56;31.76;99868.99;1721935;83;21587;-74
2021/08/09 10:55:58;;;;;;;1.80;1.70;;;;;;;29.64;31.23;99859.02;1686741;83;21679;-79
2021/08/09 10:58:46;;;;;;;5.65;2.47;;;;;;;29.78;32.90;99858.45;1718288;81;20907;-73
2021/08/09 11:01:16;;;;;;;3.10;2.87;;;;;;;29.85;33.55;99855.77;1704973;83;20918;-74
2021/08/09 11:04:08;;;;;;;8.00;2.33;;;;;;;29.91;36.17;99864.01;1712619;83;20894;-71
2021/08/09 11:06:53;;;;;;;3.25;2.55;;;;;;;29.95;36.53;99853.76;1694698;83;20875;-74
2021/08/09 11:09:40;;;;;;;3.25;2.98;;;;;;;30.01;36.89;99854.23;1694191;83;20942;-74
2021/08/09 11:12:24;;;;;;;2.87;2.45;;;;;;;30.04;36.74;99836.83;1694348;83;20847;-73
2021/08/09 11:15:07;;;;;;;3.72;2.27;;;;;;;30.06;36.57;99849.16;1711531;83;20922;-69
2021/08/09 11:17:45;;;;;;;7.10;2.87;;;;;;;30.08;36.60;99838.47;1713233;83;20976;-70
2021/08/09 11:20:18;;;;;;;2.75;2.55;;;;;;;30.13;36.95;99846.47;1713017;83;20855;-70
2021/08/09 11:23:03;;;;;;;3.35;2.83;;;;;;;30.21;36.36;99840.43;1712949;83;20982;-69
2021/08/09 11:25:46;;;;;;;2.62;2.30;;;;;;;30.30;35.91;99830.64;1707839;83;21589;-70
2021/08/09 11:28:18;;;;;;;5.28;3.00;;;;;;;30.40;35.90;99839.46;1710123;83;21482;-71
2021/08/09 11:30:59;;;;;;;4.85;2.60;;;;;;;30.46;35.86;99824.88;1713422;83;20875;-73
2021/08/09 11:33:35;;;;;;;3.00;2.60;;;;;;;30.54;35.43;99819.63;1712785;83;21198;-72
2021/08/09 11:36:07;;;;;;;2.55;2.37;;;;;;;30.54;35.20;99814.66;1711638;83;21005;-72
2021/08/09 11:38:52;;;;;;;3.40;2.50;;;;;;;30.56;34.83;99816.45;1710174;83;20951;-73
2021/08/09 11:41:28;;;;;;;3.20;2.30;;;;;;;30.51;33.72;99805.10;1713266;83;20958;-70
2021/08/09 11:44:10;;;;;;;7.03;2.80;;;;;;;30.53;32.44;99811.08;1713046;83;20906;-71
2021/08/09 11:46:30;;;;;;;7.70;3.62;;;;;;;30.56;32.65;99801.98;1708063;83;20966;-74